< < Back
Terminal Aerodrome Forecast


Current Version              Previous Versions:   1  2  3  4  5  6  7  8  9  

Terminal Aerodrome Forecast

790
FTUS42 KCAE 230700 AAA
TAFAGS
TAF AMD
KAGS 230732Z 2308/2406 VRB03KT 2SM BR SKC
      TEMPO 2308/2312 VRB03KT 1/4SM FG
     FM231300 36010KT P6SM SKC=

Latest METAR

440
SAUS70 KWBC 231000
MTRAGS
METAR KAGS 230953Z AUTO 18003KT 1/4SM FG VV007 11/10 A2982 RMK AO2
SLP096 T01110100 RVRNO


USA.gov is the U.S. government's official web portal to all federal, state and local government web resources and services.